createdAt,value
2018-07-05T00:01:40.700Z,99217.02
2018-07-05T00:04:20.341Z,99218.92
2018-07-05T00:06:59.872Z,99216.33
2018-07-05T00:09:40.447Z,99214.39
2018-07-05T00:12:20.159Z,99217.62
2018-07-05T00:14:59.693Z,99224.98
2018-07-05T00:17:39.386Z,99216.91
2018-07-05T00:20:18.955Z,99206.34
2018-07-05T00:22:58.465Z,99214.05
2018-07-05T00:25:38.007Z,99210.57
2018-07-05T00:28:17.567Z,99210.72
2018-07-05T00:30:57.003Z,99208.15
2018-07-05T00:33:36.651Z,99202.02
2018-07-05T00:36:16.186Z,99206.22
2018-07-05T00:38:55.939Z,99205.01
2018-07-05T00:41:35.369Z,99204.45
2018-07-05T00:44:14.823Z,99198.28
2018-07-05T00:46:54.269Z,99195.57
2018-07-05T00:49:33.822Z,99198.30
2018-07-05T00:52:13.457Z,99205.18
2018-07-05T00:54:53.034Z,99212.56
2018-07-05T00:57:32.607Z,99210.48
2018-07-05T01:00:12.273Z,99214.20
2018-07-05T01:02:51.812Z,99214.17
2018-07-05T01:05:31.330Z,99208.22
2018-07-05T01:08:10.972Z,99214.30
2018-07-05T01:10:50.519Z,99215.87
2018-07-05T01:13:29.983Z,99210.57
2018-07-05T01:16:09.494Z,99213.31
2018-07-05T01:18:49.043Z,99207.63
2018-07-05T01:21:28.646Z,99204.94
2018-07-05T01:24:08.186Z,99206.66
2018-07-05T01:26:47.873Z,99209.64
2018-07-05T01:29:27.424Z,99197.92
2018-07-05T01:32:06.993Z,99199.51
2018-07-05T01:34:46.999Z,99194.66
2018-07-05T01:37:26.525Z,99194.56
2018-07-05T01:40:06.160Z,99193.67
2018-07-05T01:42:45.599Z,99197.33
2018-07-05T01:45:25.121Z,99192.95
2018-07-05T01:48:04.790Z,99196.24
2018-07-05T01:50:44.457Z,99198.83
2018-07-05T01:53:23.891Z,99200.36
2018-07-05T01:56:03.549Z,99195.83
2018-07-05T01:58:43.706Z,99197.84
2018-07-05T02:01:23.375Z,99196.33
2018-07-05T02:04:02.974Z,99188.20
2018-07-05T02:06:42.440Z,99191.97
2018-07-05T02:09:21.927Z,99200.25
2018-07-05T02:12:01.496Z,99196.80
2018-07-05T02:14:41.056Z,99197.06
2018-07-05T02:17:20.568Z,99202.02
2018-07-05T02:20:00.157Z,99202.66
2018-07-05T02:22:39.668Z,99194.95
2018-07-05T02:25:19.218Z,99197.10
2018-07-05T02:27:58.762Z,99191.02
2018-07-05T02:30:38.201Z,99198.39
2018-07-05T02:33:17.772Z,99194.21
2018-07-05T02:35:57.296Z,99195.31
2018-07-05T02:38:36.725Z,99198.02
2018-07-05T02:41:16.278Z,99197.41
2018-07-05T02:43:55.906Z,99196.70
2018-07-05T02:46:35.550Z,99197.17
2018-07-05T02:49:15.102Z,99197.44
2018-07-05T02:51:54.545Z,99203.34
2018-07-05T02:54:34.261Z,99201.45
2018-07-05T02:57:13.966Z,99197.69
2018-07-05T02:59:54.514Z,99198.67
2018-07-05T03:02:34.035Z,99197.33
2018-07-05T03:05:13.518Z,99198.23
2018-07-05T03:07:53.050Z,99204.30
2018-07-05T03:10:32.538Z,99207.36
2018-07-05T03:13:12.089Z,99200.61
2018-07-05T03:15:51.532Z,99200.16
2018-07-05T03:18:31.048Z,99197.72
2018-07-05T03:21:10.714Z,99192.45
2018-07-05T03:23:50.248Z,99191.92
2018-07-05T03:26:29.747Z,99194.88
2018-07-05T03:29:09.283Z,99191.53
2018-07-05T03:31:48.815Z,99188.42
2018-07-05T03:34:28.348Z,99179.20
2018-07-05T03:37:07.861Z,99191.53
2018-07-05T03:39:47.325Z,99191.53
2018-07-05T03:45:22.459Z,99194.20
2018-07-05T03:48:01.981Z,99204.80
2018-07-05T03:56:00.134Z,99211.20
2018-07-05T03:58:39.725Z,99210.73
2018-07-05T04:01:19.422Z,99204.61
2018-07-05T04:03:59.105Z,99206.50
2018-07-05T04:06:38.610Z,99207.59
2018-07-05T04:09:18.449Z,99209.27
2018-07-05T04:11:58.001Z,99213.34
2018-07-05T04:14:37.424Z,99213.67
2018-07-05T04:17:16.854Z,99210.98
2018-07-05T05:42:05.436Z,99216.70
2018-07-05T05:44:46.061Z,99207.49
2018-07-05T05:47:25.709Z,99209.02
2018-07-05T05:50:05.344Z,99212.77
2018-07-05T05:52:44.901Z,99215.14
2018-07-05T05:55:24.282Z,99213.22
2018-07-05T05:58:03.919Z,99216.84
2018-07-05T06:00:43.329Z,99216.84
2018-07-05T06:03:22.817Z,99216.05
2018-07-05T06:06:02.381Z,99212.06
2018-07-05T06:08:41.858Z,99211.76
2018-07-05T06:11:21.462Z,99215.95
2018-07-05T06:14:00.965Z,99215.47
2018-07-05T06:16:40.465Z,99215.30
2018-07-05T06:19:20.023Z,99221.61
2018-07-05T06:21:59.499Z,99224.48
2018-07-05T06:24:39.145Z,99221.55
2018-07-05T06:27:18.629Z,99211.73
2018-07-05T06:29:58.295Z,99212.56
2018-07-05T06:32:37.819Z,99210.69
2018-07-05T06:35:17.342Z,99211.23
2018-07-05T06:37:56.851Z,99216.16
2018-07-05T06:40:36.489Z,99210.67
2018-07-05T06:43:16.173Z,99219.55
2018-07-05T06:45:55.741Z,99222.56
2018-07-05T06:48:35.285Z,99218.84
2018-07-05T06:51:14.794Z,99211.03
2018-07-05T06:53:54.534Z,99216.64
2018-07-05T06:56:34.109Z,99221.97
2018-07-05T06:59:14.008Z,99220.24
2018-07-05T07:01:53.638Z,99213.51
2018-07-05T07:04:33.142Z,99215.94
2018-07-05T07:07:12.848Z,99205.98
2018-07-05T07:09:52.352Z,99211.25
2018-07-05T07:12:31.951Z,99209.26
2018-07-05T07:15:11.532Z,99206.43
2018-07-05T07:17:51.174Z,99204.48
2018-07-05T07:20:30.719Z,99202.05
2018-07-05T07:23:10.318Z,99194.56
2018-07-05T07:25:49.785Z,99192.02
2018-07-05T07:28:30.182Z,99188.31
2018-07-05T07:31:09.803Z,99181.32
2018-07-05T07:33:49.353Z,99180.88
2018-07-05T07:36:28.854Z,99183.72
2018-07-05T07:39:08.320Z,99186.23
2018-07-05T07:41:45.676Z,99181.08
2018-07-05T07:44:13.060Z,99177.52
2018-07-05T07:46:40.421Z,99174.67
2018-07-05T07:49:07.762Z,99174.30
2018-07-05T07:51:35.098Z,99178.42
2018-07-05T07:54:02.454Z,99171.66
2018-07-05T07:56:29.793Z,99157.75
2018-07-05T07:58:57.104Z,99156.63
2018-07-05T08:01:24.610Z,99155.03
2018-07-05T08:03:51.914Z,99157.85
2018-07-05T08:06:19.340Z,99151.69
2018-07-05T08:08:46.734Z,99156.67
2018-07-05T08:11:14.070Z,99158.25
2018-07-05T08:13:41.413Z,99154.77
2018-07-05T08:16:08.761Z,99159.05
2018-07-05T08:18:36.066Z,99157.56
2018-07-05T08:21:03.417Z,99156.92
2018-07-05T08:23:30.738Z,99162.26
2018-07-05T08:25:58.134Z,99166.36
2018-07-05T08:28:25.449Z,99164.74
2018-07-05T08:30:52.801Z,99156.55
2018-07-05T08:33:20.195Z,99169.46
2018-07-05T08:35:47.511Z,99155.81
2018-07-05T08:38:14.840Z,99158.98
2018-07-05T08:40:42.134Z,99151.89
2018-07-05T08:43:09.526Z,99148.34
2018-07-05T08:45:36.824Z,99145.06
2018-07-05T08:48:04.198Z,99145.08
2018-07-05T08:50:31.532Z,99146.15
2018-07-05T08:52:58.821Z,99139.74
2018-07-05T08:55:26.141Z,99144.06
2018-07-05T08:57:53.472Z,99144.06
2018-07-05T09:00:20.776Z,99137.56
2018-07-05T09:02:48.098Z,99143.27
2018-07-05T09:05:15.424Z,99135.86
2018-07-05T09:07:42.925Z,99131.61
2018-07-05T09:10:10.238Z,99131.78
2018-07-05T09:12:37.555Z,99129.31
2018-07-05T09:15:04.872Z,99130.95
2018-07-05T09:17:32.294Z,99126.44
2018-07-05T09:19:59.688Z,99128.77
2018-07-05T09:22:27.012Z,99132.23
2018-07-05T09:24:54.317Z,99122.86
2018-07-05T09:27:21.677Z,99118.94
2018-07-05T09:29:48.982Z,99122.72
2018-07-05T09:32:16.280Z,99121.44
2018-07-05T09:34:43.647Z,99111.47
2018-07-05T09:37:11.027Z,99115.88
2018-07-05T09:39:38.347Z,99106.30
2018-07-05T09:42:05.666Z,99105.66
2018-07-05T09:44:32.964Z,99100.36
2018-07-05T09:47:00.310Z,99101.20
2018-07-05T09:49:27.646Z,99092.97
2018-07-05T09:51:54.968Z,99093.78
2018-07-05T09:54:22.259Z,99092.11
2018-07-05T09:56:49.647Z,99088.65
2018-07-05T09:59:16.972Z,99085.38
2018-07-05T10:01:44.365Z,99083.70
2018-07-05T10:04:11.698Z,99083.84
2018-07-05T10:06:38.972Z,99077.23
2018-07-05T10:09:06.487Z,99081.38
2018-07-05T10:11:34.072Z,99073.43
2018-07-05T10:14:01.431Z,99071.30
2018-07-05T10:16:29.012Z,99064.48
2018-07-05T10:18:56.443Z,99065.00
2018-07-05T10:21:25.886Z,99068.97
2018-07-05T10:23:53.680Z,99064.03
2018-07-05T10:26:21.030Z,99061.23
2018-07-05T10:29:00.728Z,99060.72
2018-07-05T10:31:40.406Z,99052.96
2018-07-05T10:34:07.762Z,99048.13
2018-07-05T10:36:35.058Z,99045.41
2018-07-05T10:39:02.383Z,99042.80
2018-07-05T10:41:41.805Z,99048.40
2018-07-05T10:44:21.345Z,99044.64
2018-07-05T10:47:01.058Z,99037.25
2018-07-05T10:49:40.627Z,99035.78
2018-07-05T10:52:20.147Z,99035.64
2018-07-05T10:54:59.697Z,99031.95
2018-07-05T10:57:40.258Z,99017.68
2018-07-05T11:00:19.791Z,99030.56
2018-07-05T11:02:59.227Z,99030.92
2018-07-05T11:05:39.015Z,99027.42
2018-07-05T11:08:18.547Z,99025.77
2018-07-05T11:10:58.774Z,99023.38
2018-07-05T11:13:38.345Z,99024.80
2018-07-05T11:16:17.856Z,99017.13
2018-07-05T11:18:57.394Z,99017.78
2018-07-05T11:21:36.966Z,99006.17
2018-07-05T11:24:16.471Z,99008.68
2018-07-05T11:26:56.147Z,98990.68
2018-07-05T11:29:35.684Z,98990.97
2018-07-05T11:32:15.407Z,98984.95
2018-07-05T11:34:54.969Z,98988.44
2018-07-05T11:37:35.283Z,98976.55
2018-07-05T11:40:14.951Z,98973.89
2018-07-05T11:42:54.509Z,98971.03
2018-07-05T11:45:34.065Z,98966.00
2018-07-05T11:48:13.586Z,98963.20
2018-07-05T11:50:53.157Z,98954.25
2018-07-05T11:53:32.887Z,98952.84
2018-07-05T11:56:13.141Z,98954.57
2018-07-05T11:58:52.674Z,98945.95
2018-07-05T12:01:32.207Z,98947.06
2018-07-05T12:04:11.943Z,98945.55
2018-07-05T12:06:51.322Z,98943.30
2018-07-05T12:09:30.797Z,98947.20
2018-07-05T12:12:10.302Z,98940.81
2018-07-05T12:14:50.013Z,98938.63
2018-07-05T12:17:29.586Z,98936.02
2018-07-05T12:20:09.164Z,98942.59
2018-07-05T12:22:48.656Z,98933.13
2018-07-05T12:25:28.457Z,98930.04
2018-07-05T12:28:08.069Z,98925.02
2018-07-05T12:30:47.635Z,98918.84
2018-07-05T12:33:27.563Z,98922.78
2018-07-05T12:45:48.649Z,98912.27
2018-07-05T12:48:29.520Z,98901.61
2018-07-05T12:51:09.881Z,98896.13
2018-07-05T12:53:49.361Z,98889.08
2018-07-05T12:56:29.472Z,98892.47
2018-07-05T12:59:09.035Z,98883.52
2018-07-05T13:01:48.766Z,98881.09
2018-07-05T13:04:28.293Z,98877.14
2018-07-05T13:07:08.104Z,98867.30
2018-07-05T13:09:47.630Z,98864.63
2018-07-05T13:12:27.290Z,98876.24
2018-07-05T13:15:06.890Z,98875.64
2018-07-05T13:17:46.476Z,98881.37
2018-07-05T13:20:26.104Z,98878.61
2018-07-05T13:23:05.599Z,98874.08
2018-07-05T13:25:45.149Z,98867.45
2018-07-05T13:28:24.608Z,98862.50
2018-07-05T13:31:04.049Z,98861.64
2018-07-05T13:33:43.722Z,98857.10
2018-07-05T13:36:23.234Z,98857.43
2018-07-05T13:39:03.008Z,98864.84
2018-07-05T13:41:42.649Z,98857.66
2018-07-05T13:44:22.198Z,98860.13
2018-07-05T13:47:01.811Z,98862.94
2018-07-05T13:49:41.437Z,98855.25
2018-07-05T13:52:20.959Z,98865.70
2018-07-05T13:55:00.645Z,98857.89
2018-07-05T13:57:40.182Z,98860.93
2018-07-05T14:00:19.814Z,98865.04
2018-07-05T14:03:00.255Z,98857.16
2018-07-05T14:05:39.718Z,98849.77
2018-07-05T14:08:19.245Z,98850.48
2018-07-05T14:10:58.872Z,98849.27
2018-07-05T14:13:38.627Z,98849.63
2018-07-05T14:16:18.136Z,98852.63
2018-07-05T14:18:57.664Z,98856.44
2018-07-05T14:21:37.225Z,98846.28
2018-07-05T14:24:16.790Z,98842.98
2018-07-05T14:26:56.318Z,98841.30
2018-07-05T14:29:35.865Z,98841.78
2018-07-05T14:32:15.293Z,98845.08
2018-07-05T14:34:54.842Z,98839.81
2018-07-05T14:37:34.362Z,98836.23
2018-07-05T14:40:14.075Z,98821.37
2018-07-05T14:42:54.872Z,98830.84
2018-07-05T14:45:34.385Z,98819.48
2018-07-05T14:48:13.934Z,98826.83
2018-07-05T14:50:53.436Z,98823.42
2018-07-05T14:53:33.822Z,98820.44
2018-07-05T14:56:13.344Z,98819.62
2018-07-05T14:58:52.952Z,98815.67
2018-07-05T15:01:33.020Z,98808.06
2018-07-05T15:04:12.691Z,98809.05
2018-07-05T15:06:52.084Z,98800.91
2018-07-05T15:09:31.654Z,98802.98
2018-07-05T15:12:11.316Z,98799.48
2018-07-05T15:14:50.858Z,98801.06
2018-07-05T15:17:30.376Z,98787.38
2018-07-05T15:20:09.902Z,98795.30
2018-07-05T15:22:49.606Z,98785.91
2018-07-05T15:25:29.226Z,98786.89
2018-07-05T15:28:08.867Z,98778.77
2018-07-05T15:30:48.378Z,98782.77
2018-07-05T15:33:28.018Z,98781.14
2018-07-05T15:36:07.521Z,98774.84
2018-07-05T15:38:47.174Z,98769.48
2018-07-05T15:41:26.702Z,98768.80
2018-07-05T15:44:06.106Z,98772.55
2018-07-05T15:46:45.710Z,98762.06
2018-07-05T15:49:25.215Z,98761.98
2018-07-05T15:52:04.653Z,98753.41
2018-07-05T15:54:44.200Z,98747.70
2018-07-05T15:57:23.722Z,98748.16
2018-07-05T16:00:03.227Z,98741.90
2018-07-05T16:02:42.736Z,98747.46
2018-07-05T16:05:22.302Z,98746.98
2018-07-05T16:08:01.839Z,98746.59
2018-07-05T16:10:41.393Z,98742.70
2018-07-05T16:13:20.932Z,98752.63
2018-07-05T16:16:00.509Z,98745.77
2018-07-05T16:18:40.064Z,98750.27
2018-07-05T16:21:19.538Z,98752.15
2018-07-05T16:23:59.072Z,98744.27
2018-07-05T16:26:38.661Z,98752.22
2018-07-05T16:29:18.897Z,98749.62
2018-07-05T16:31:58.368Z,98748.71
2018-07-05T16:34:37.989Z,98749.90
2018-07-05T16:37:17.640Z,98747.27
2018-07-05T16:39:57.217Z,98752.78
2018-07-05T16:42:36.732Z,98754.69
2018-07-05T16:45:16.390Z,98756.27
2018-07-05T16:47:55.887Z,98758.11
2018-07-05T16:50:35.957Z,98752.83
2018-07-05T16:53:15.459Z,98755.34
2018-07-05T16:55:55.020Z,98756.07
2018-07-05T16:58:36.247Z,98758.09
2018-07-05T17:01:16.130Z,98762.78
2018-07-05T17:03:55.815Z,98776.03
2018-07-05T17:06:35.469Z,98778.55
2018-07-05T17:09:15.152Z,98797.08
2018-07-05T17:11:55.151Z,98803.17
2018-07-05T17:14:35.294Z,98808.10
2018-07-05T17:17:14.791Z,98815.09
2018-07-05T17:19:54.298Z,98826.09
2018-07-05T17:22:33.885Z,98828.61
2018-07-05T17:25:13.420Z,98824.59
2018-07-05T17:27:52.976Z,98821.62
2018-07-05T17:30:32.543Z,98831.14
2018-07-05T17:33:12.147Z,98837.42
2018-07-05T17:35:51.684Z,98838.62
2018-07-05T17:38:31.281Z,98842.14
2018-07-05T17:41:10.921Z,98844.41
2018-07-05T17:43:50.486Z,98838.31
2018-07-05T17:46:30.011Z,98842.90
2018-07-05T17:49:09.525Z,98844.09
2018-07-05T17:51:49.631Z,98850.02
2018-07-05T17:54:29.358Z,98853.47
2018-07-05T17:57:09.057Z,98857.12
2018-07-05T17:59:48.590Z,98864.82
2018-07-05T18:02:28.134Z,98867.75
2018-07-05T18:05:07.701Z,98876.64
2018-07-05T18:07:47.508Z,98880.06
2018-07-05T18:10:27.359Z,98867.55
2018-07-05T18:13:07.054Z,98869.39
2018-07-05T18:15:46.689Z,98870.98
2018-07-05T18:18:26.249Z,98873.36
2018-07-05T18:21:05.868Z,98882.86
2018-07-05T18:23:45.442Z,98883.13
2018-07-05T18:26:25.227Z,98876.89
2018-07-05T18:29:04.819Z,98881.98
2018-07-05T18:31:45.535Z,98886.67
2018-07-05T18:34:25.071Z,98891.98
2018-07-05T18:37:04.547Z,98897.14
2018-07-05T18:39:44.476Z,98908.34
2018-07-05T18:42:24.003Z,98904.08
2018-07-05T18:45:03.442Z,98901.30
2018-07-05T18:47:43.356Z,98904.39
2018-07-05T18:50:22.830Z,98899.70
2018-07-05T18:53:02.324Z,98898.91
2018-07-05T18:55:41.882Z,98906.23
2018-07-05T18:58:21.336Z,98913.22
2018-07-05T19:01:00.714Z,98897.70
2018-07-05T19:03:40.241Z,98900.38
2018-07-05T19:06:19.742Z,98902.35
2018-07-05T19:08:59.279Z,98906.31
2018-07-05T19:11:39.774Z,98910.37
2018-07-05T19:14:19.247Z,98913.41
2018-07-05T19:16:58.650Z,98909.29
2018-07-05T19:19:38.601Z,98910.23
2018-07-05T19:22:18.574Z,98911.17
2018-07-05T19:24:58.306Z,98914.91
2018-07-05T19:27:38.122Z,98912.79
2018-07-05T19:30:18.223Z,98917.19
2018-07-05T19:32:58.054Z,98918.38
2018-07-05T19:35:38.435Z,98919.56
2018-07-05T19:38:18.030Z,98925.63
2018-07-05T19:40:57.681Z,98921.12
2018-07-05T19:43:37.082Z,98925.63
2018-07-05T19:46:16.957Z,98926.95
2018-07-05T19:48:56.542Z,98926.34
2018-07-05T19:51:36.136Z,98926.10
2018-07-05T19:54:15.714Z,98927.08
2018-07-05T19:56:55.308Z,98931.84
2018-07-05T19:59:34.721Z,98931.73
2018-07-05T20:02:14.282Z,98931.27
2018-07-05T20:04:53.830Z,98928.69
2018-07-05T20:07:33.477Z,98928.57
2018-07-05T20:10:13.029Z,98930.48
2018-07-05T20:12:52.519Z,98938.66
2018-07-05T20:15:32.035Z,98929.98
2018-07-05T20:18:11.744Z,98929.75
2018-07-05T20:20:51.312Z,98934.28
2018-07-05T20:23:30.822Z,98933.31
2018-07-05T20:26:10.399Z,98947.45
2018-07-05T20:28:50.070Z,98942.69
2018-07-05T20:31:29.479Z,98946.61
2018-07-05T20:34:09.024Z,98940.42
2018-07-05T20:36:48.703Z,98943.16
2018-07-05T20:39:28.222Z,98940.89
2018-07-05T20:42:07.719Z,98944.70
2018-07-05T20:44:47.205Z,98943.40
2018-07-05T20:47:26.797Z,98940.31
2018-07-05T20:50:06.215Z,98939.02
2018-07-05T20:52:45.793Z,98942.69
2018-07-05T20:55:25.357Z,98949.69
2018-07-05T20:58:04.900Z,98954.77
2018-07-05T21:00:44.473Z,98974.53
2018-07-05T21:03:23.886Z,98980.71
2018-07-05T21:06:04.438Z,98979.14
2018-07-05T21:08:44.020Z,98981.75
2018-07-05T21:11:23.663Z,98988.28
2018-07-05T21:14:03.358Z,98984.73
2018-07-05T21:16:42.918Z,98993.28
2018-07-05T21:19:22.458Z,98993.37
2018-07-05T21:22:03.141Z,99002.50
2018-07-05T21:24:42.757Z,99015.78
2018-07-05T21:27:22.473Z,99031.73
2018-07-05T21:30:02.126Z,99025.53
2018-07-05T21:32:41.688Z,99023.97
2018-07-05T21:35:21.139Z,99057.03
2018-07-05T21:38:00.666Z,99038.84
2018-07-05T21:40:40.234Z,99026.73
2018-07-05T21:43:19.876Z,99042.93
2018-07-05T21:45:59.421Z,99029.04
2018-07-05T21:48:38.906Z,99050.19
2018-07-05T21:51:18.456Z,99065.02
2018-07-05T21:53:58.017Z,99054.16
2018-07-05T21:56:37.551Z,99072.91
2018-07-05T21:59:17.068Z,99066.95
2018-07-05T22:01:56.608Z,99086.98
2018-07-05T22:04:36.104Z,99085.89
2018-07-05T22:07:15.846Z,99090.02
2018-07-05T22:09:55.330Z,99111.80
2018-07-05T22:12:34.729Z,99112.62
2018-07-05T22:15:14.215Z,99116.67
2018-07-05T22:17:58.981Z,99119.44
2018-07-05T22:20:43.846Z,99132.27
2018-07-05T22:23:28.526Z,99118.79
2018-07-05T22:26:13.218Z,99148.73
2018-07-05T22:28:57.867Z,99127.50
2018-07-05T22:31:37.282Z,99147.02
2018-07-05T22:34:16.850Z,99127.63
2018-07-05T22:36:56.375Z,99132.30
2018-07-05T22:39:35.880Z,99122.35
2018-07-05T22:42:15.452Z,99110.45
2018-07-05T22:44:55.011Z,99111.20
2018-07-05T22:47:34.531Z,99103.60
2018-07-05T22:50:14.295Z,99095.64
2018-07-05T22:52:53.841Z,99110.11
2018-07-05T22:55:33.574Z,99098.70
2018-07-05T22:58:13.110Z,99115.10
2018-07-05T23:00:52.551Z,99115.76
2018-07-05T23:03:32.009Z,99082.25
2018-07-05T23:06:11.641Z,99086.90
2018-07-05T23:08:51.093Z,99090.25
2018-07-05T23:11:30.610Z,99086.17
2018-07-05T23:14:10.028Z,99094.98
2018-07-05T23:16:49.546Z,99072.80
2018-07-05T23:19:29.141Z,99101.30
2018-07-05T23:22:08.703Z,99061.30
2018-07-05T23:24:48.214Z,99125.80
2018-07-05T23:27:27.685Z,99049.83
2018-07-05T23:30:07.402Z,99053.09
2018-07-05T23:32:47.006Z,99032.21
2018-07-05T23:35:26.434Z,99038.24
2018-07-05T23:38:05.925Z,99019.05
2018-07-05T23:40:45.355Z,99022.48
2018-07-05T23:43:24.924Z,99013.47
2018-07-05T23:46:04.440Z,99015.13
2018-07-05T23:48:43.957Z,99016.45
2018-07-05T23:51:23.364Z,99015.15
2018-07-05T23:54:03.002Z,99022.28
2018-07-05T23:56:42.419Z,99016.42
2018-07-05T23:59:21.894Z,99005.49
